Time;durP1;ratioP1;P1;durP2;ratioP2;P2;SDS_P1;SDS_P2;PMS_P1;PMS_P2;Temp;Humidity;BMP_temperature;BMP_pressure;BME280_temperature;BME280_humidity;BME280_pressure;Samples;Min_cycle;Max_cycle;Signal;HPM_P1;HPM_P2
2020/02/24 00:00:53;;;;;;;2.65;2.1;;;;;;;11.21;82.17578;95500.67;;;;
2020/02/24 00:04:30;;;;;;;2.65;2.1;;;;;;;11.21;82.17578;95500.67;;;;
2020/02/24 00:05:40;;;;;;;2.65;2.1;;;;;;;11.21;82.17578;95500.67;;;;
2020/02/24 00:06:40;;;;;;;2.65;2.1;;;;;;;11.21;82.17578;95500.67;;;;
2020/02/24 00:07:41;;;;;;;2.65;2.1;;;;;;;11.21;82.17578;95500.67;;;;
2020/02/24 00:08:43;;;;;;;2.65;2.1;;;;;;;11.21;82.17578;95500.67;;;;
2020/02/24 00:09:46;;;;;;;2.8;2.1;;;;;;;11.11;84.46484;95504.1;;;;
2020/02/24 00:10:48;;;;;;;2.8;2.1;;;;;;;11.11;84.46484;95504.1;;;;
2020/02/24 00:11:49;;;;;;;2.8;2.1;;;;;;;11.11;84.46484;95504.1;;;;
2020/02/24 00:12:49;;;;;;;2.8;2.1;;;;;;;11.11;84.46484;95504.1;;;;
2020/02/24 00:13:51;;;;;;;2.8;2.1;;;;;;;11.11;84.46484;95504.1;;;;
2020/02/24 00:14:52;;;;;;;2.8;2.1;;;;;;;11.11;84.46484;95504.1;;;;
2020/02/24 00:15:55;;;;;;;2.8;2.1;;;;;;;11.11;84.46484;95504.1;;;;
2020/02/24 00:17:04;;;;;;;2.8;2.1;;;;;;;11.11;84.46484;95504.1;;;;
2020/02/24 00:18:12;;;;;;;2.8;2.1;;;;;;;11.11;84.46484;95504.1;;;;
2020/02/24 00:20:10;;;;;;;2.8;2.1;;;;;;;11.11;84.46484;95504.1;;;;
2020/02/24 00:21:13;;;;;;;2.6;2.1;;;;;;;11.01;85.65137;95509.64;;;;
2020/02/24 00:27:33;;;;;;;2.6;2.1;;;;;;;11.01;85.65137;95509.64;;;;
2020/02/24 00:28:33;;;;;;;2.6;2.1;;;;;;;11.01;85.65137;95509.64;;;;
2020/02/24 00:29:33;;;;;;;2.6;2.1;;;;;;;11.01;85.65137;95509.64;;;;
2020/02/24 00:30:35;;;;;;;2.6;2.1;;;;;;;11.01;85.65137;95509.64;;;;
2020/02/24 00:31:37;;;;;;;3.85;2.1;;;;;;;10.94;86.9502;95520.15;;;;
2020/02/24 00:32:46;;;;;;;3.85;2.1;;;;;;;10.94;86.9502;95520.15;;;;
2020/02/24 00:39:21;;;;;;;3.85;2.1;;;;;;;10.94;86.9502;95520.15;;;;
2020/02/24 00:44:21;;;;;;;2.6;2;;;;;;;10.88;87.88672;95530.66;;;;
2020/02/24 00:49:22;;;;;;;2.6;2;;;;;;;10.88;87.88672;95530.66;;;;
2020/02/24 00:53:11;;;;;;;2.85;2.05;;;;;;;10.87;89.68848;95537.52;;;;
2020/02/24 00:54:41;;;;;;;2.85;2.05;;;;;;;10.87;89.68848;95537.52;;;;
2020/02/24 01:00:11;;;;;;;2.85;2.05;;;;;;;10.87;89.68848;95537.52;;;;
2020/02/24 01:07:47;;;;;;;2.4;2.1;;;;;;;10.8;90.1123;95549.78;;;;
2020/02/24 01:08:55;;;;;;;2.4;2.1;;;;;;;10.8;90.1123;95549.78;;;;
2020/02/24 01:09:56;;;;;;;2.4;2.1;;;;;;;10.8;90.1123;95549.78;;;;
2020/02/24 01:10:56;;;;;;;2.4;2.1;;;;;;;10.8;90.1123;95549.78;;;;
2020/02/24 01:12:00;;;;;;;2.4;2.1;;;;;;;10.8;90.1123;95549.78;;;;
2020/02/24 01:13:01;;;;;;;2.4;2.1;;;;;;;10.8;90.1123;95549.78;;;;
2020/02/24 01:14:01;;;;;;;2.45;2;;;;;;;10.8;90.72852;95562.45;;;;
2020/02/24 01:15:08;;;;;;;2.45;2;;;;;;;10.8;90.72852;95562.45;;;;
2020/02/24 01:16:11;;;;;;;2.45;2;;;;;;;10.8;90.72852;95562.45;;;;
2020/02/24 01:17:12;;;;;;;2.45;2;;;;;;;10.8;90.72852;95562.45;;;;
2020/02/24 01:18:19;;;;;;;2.45;2;;;;;;;10.8;90.72852;95562.45;;;;
2020/02/24 01:19:21;;;;;;;2.45;2;;;;;;;10.8;90.72852;95562.45;;;;
2020/02/24 01:20:21;;;;;;;2.45;2;;;;;;;10.8;90.72852;95562.45;;;;
2020/02/24 01:21:22;;;;;;;2.45;2;;;;;;;10.8;90.72852;95562.45;;;;
2020/02/24 01:22:22;;;;;;;2.45;2;;;;;;;10.8;90.72852;95562.45;;;;
2020/02/24 01:23:23;;;;;;;2.45;2;;;;;;;10.8;90.72852;95562.45;;;;
2020/02/24 01:24:23;;;;;;;2.45;2;;;;;;;10.8;90.72852;95562.45;;;;
2020/02/24 01:25:24;;;;;;;2.45;2;;;;;;;10.8;90.72852;95562.45;;;;
2020/02/24 01:26:24;;;;;;;2.45;2;;;;;;;10.8;90.72852;95562.45;;;;
2020/02/24 01:27:25;;;;;;;2.45;2;;;;;;;10.8;90.72852;95562.45;;;;
2020/02/24 01:28:26;;;;;;;2.45;2;;;;;;;10.8;90.72852;95562.45;;;;
2020/02/24 01:29:27;;;;;;;2.45;2;;;;;;;10.8;90.72852;95562.45;;;;
2020/02/24 01:30:27;;;;;;;2.45;2;;;;;;;10.8;90.72852;95562.45;;;;
2020/02/24 01:31:34;;;;;;;2.45;2;;;;;;;10.8;90.72852;95562.45;;;;
2020/02/24 01:32:34;;;;;;;2.45;2;;;;;;;10.8;90.72852;95562.45;;;;
2020/02/24 01:33:41;;;;;;;2.45;2;;;;;;;10.8;90.72852;95562.45;;;;
2020/02/24 01:39:58;;;;;;;2.85;1.3;;;;;;;10.8;90.81348;95627.28;;;;
2020/02/24 01:41:00;;;;;;;2.85;1.3;;;;;;;10.8;90.81348;95627.28;;;;
2020/02/24 01:42:01;;;;;;;2.85;1.3;;;;;;;10.8;90.81348;95627.28;;;;
2020/02/24 01:43:01;;;;;;;2.85;1.3;;;;;;;10.8;90.81348;95627.28;;;;
2020/02/24 01:44:02;;;;;;;2.85;1.3;;;;;;;10.8;90.81348;95627.28;;;;
2020/02/24 01:45:03;;;;;;;2.85;1.3;;;;;;;10.8;90.81348;95627.28;;;;
2020/02/24 01:46:08;;;;;;;1.85;1.3;;;;;;;9.86;87.94824;95710.52;;;;
2020/02/24 01:47:10;;;;;;;1.85;1.3;;;;;;;9.86;87.94824;95710.52;;;;
2020/02/24 01:48:11;;;;;;;1.85;1.3;;;;;;;9.86;87.94824;95710.52;;;;
2020/02/24 01:49:12;;;;;;;1.85;1.3;;;;;;;9.86;87.94824;95710.52;;;;
2020/02/24 01:50:19;;;;;;;1.85;1.3;;;;;;;9.86;87.94824;95710.52;;;;
2020/02/24 01:51:20;;;;;;;1.85;1.3;;;;;;;9.86;87.94824;95710.52;;;;
2020/02/24 01:52:22;;;;;;;1.85;1.3;;;;;;;9.86;87.94824;95710.52;;;;
2020/02/24 01:53:22;;;;;;;1.85;1.3;;;;;;;9.86;87.94824;95710.52;;;;
2020/02/24 01:54:23;;;;;;;1.85;1.3;;;;;;;9.86;87.94824;95710.52;;;;
2020/02/24 01:55:23;;;;;;;1.85;1.3;;;;;;;9.86;87.94824;95710.52;;;;
2020/02/24 01:56:23;;;;;;;1.7;1.6;;;;;;;8.57;87.80762;95705.25;;;;
2020/02/24 01:57:24;;;;;;;1.7;1.6;;;;;;;8.57;87.80762;95705.25;;;;
2020/02/24 01:58:24;;;;;;;1.7;1.6;;;;;;;8.57;87.80762;95705.25;;;;
2020/02/24 01:59:25;;;;;;;1.7;1.6;;;;;;;8.57;87.80762;95705.25;;;;
2020/02/24 02:00:25;;;;;;;1.7;1.6;;;;;;;8.57;87.80762;95705.25;;;;
2020/02/24 02:02:01;;;;;;;1.7;1.6;;;;;;;8.57;87.80762;95705.25;;;;
2020/02/24 02:03:08;;;;;;;1.7;1.6;;;;;;;8.57;87.80762;95705.25;;;;
2020/02/24 02:04:17;;;;;;;1.7;1.6;;;;;;;8.57;87.80762;95705.25;;;;
2020/02/24 02:05:19;;;;;;;1.7;1.6;;;;;;;8.57;87.80762;95705.25;;;;
2020/02/24 02:06:20;;;;;;;1.7;1.6;;;;;;;8.57;87.80762;95705.25;;;;
2020/02/24 02:07:20;;;;;;;3.199999;1.95;;;;;;;7.51;88.65039;95727.22;;;;
2020/02/24 02:08:21;;;;;;;3.199999;1.95;;;;;;;7.51;88.65039;95727.22;;;;
2020/02/24 02:09:29;;;;;;;3.199999;1.95;;;;;;;7.51;88.65039;95727.22;;;;
2020/02/24 02:10:55;;;;;;;3.199999;1.95;;;;;;;7.51;88.65039;95727.22;;;;
2020/02/24 02:11:55;;;;;;;3.199999;1.95;;;;;;;7.51;88.65039;95727.22;;;;
2020/02/24 02:12:56;;;;;;;3.199999;1.95;;;;;;;7.51;88.65039;95727.22;;;;
2020/02/24 02:13:56;;;;;;;3.199999;1.95;;;;;;;7.51;88.65039;95727.22;;;;
2020/02/24 02:14:57;;;;;;;3.199999;1.95;;;;;;;7.51;88.65039;95727.22;;;;
2020/02/24 02:16:02;;;;;;;3.199999;1.95;;;;;;;7.51;88.65039;95727.22;;;;
2020/02/24 02:17:06;;;;;;;3.199999;1.95;;;;;;;7.51;88.65039;95727.22;;;;
2020/02/24 02:18:07;;;;;;;2.95;2.55;;;;;;;6.86;89.73242;95749.41;;;;
2020/02/24 02:19:10;;;;;;;2.95;2.55;;;;;;;6.86;89.73242;95749.41;;;;
2020/02/24 02:20:10;;;;;;;2.95;2.55;;;;;;;6.86;89.73242;95749.41;;;;
2020/02/24 02:21:14;;;;;;;2.95;2.55;;;;;;;6.86;89.73242;95749.41;;;;
2020/02/24 02:22:16;;;;;;;2.95;2.55;;;;;;;6.86;89.73242;95749.41;;;;
2020/02/24 02:23:17;;;;;;;2.95;2.55;;;;;;;6.86;89.73242;95749.41;;;;
2020/02/24 02:24:22;;;;;;;2.95;2.55;;;;;;;6.86;89.73242;95749.41;;;;
2020/02/24 02:25:22;;;;;;;2.95;2.55;;;;;;;6.86;89.73242;95749.41;;;;
2020/02/24 02:26:23;;;;;;;2.95;2.55;;;;;;;6.86;89.73242;95749.41;;;;
2020/02/24 02:27:23;;;;;;;2.95;2.55;;;;;;;6.86;89.73242;95749.41;;;;
2020/02/24 02:28:24;;;;;;;3.5;2.95;;;;;;;6.39;90.13379;95771.69;;;;
2020/02/24 02:29:24;;;;;;;3.5;2.95;;;;;;;6.39;90.13379;95771.69;;;;
2020/02/24 02:30:25;;;;;;;3.5;2.95;;;;;;;6.39;90.13379;95771.69;;;;
2020/02/24 02:31:30;;;;;;;3.5;2.95;;;;;;;6.39;90.13379;95771.69;;;;
2020/02/24 02:32:38;;;;;;;3.5;2.95;;;;;;;6.39;90.13379;95771.69;;;;
2020/02/24 02:33:43;;;;;;;3.5;2.95;;;;;;;6.39;90.13379;95771.69;;;;
2020/02/24 02:35:23;;;;;;;3.5;2.95;;;;;;;6.39;90.13379;95771.69;;;;
2020/02/24 02:36:30;;;;;;;3.5;2.95;;;;;;;6.39;90.13379;95771.69;;;;
2020/02/24 02:37:31;;;;;;;3.5;2.95;;;;;;;6.39;90.13379;95771.69;;;;
2020/02/24 02:38:32;;;;;;;3.649999;2.95;;;;;;;6.12;90.38184;95774.82;;;;
2020/02/24 02:39:32;;;;;;;3.649999;2.95;;;;;;;6.12;90.38184;95774.82;;;;
2020/02/24 02:40:53;;;;;;;3.649999;2.95;;;;;;;6.12;90.38184;95774.82;;;;
2020/02/24 02:41:53;;;;;;;3.649999;2.95;;;;;;;6.12;90.38184;95774.82;;;;
2020/02/24 02:42:54;;;;;;;3.649999;2.95;;;;;;;6.12;90.38184;95774.82;;;;
2020/02/24 02:43:54;;;;;;;3.649999;2.95;;;;;;;6.12;90.38184;95774.82;;;;
2020/02/24 02:44:55;;;;;;;3.649999;2.95;;;;;;;6.12;90.38184;95774.82;;;;
2020/02/24 02:45:55;;;;;;;3.649999;2.95;;;;;;;6.12;90.38184;95774.82;;;;
2020/02/24 02:46:56;;;;;;;3.649999;2.95;;;;;;;6.12;90.38184;95774.82;;;;
2020/02/24 02:47:56;;;;;;;3.649999;2.95;;;;;;;6.12;90.38184;95774.82;;;;
2020/02/24 02:48:57;;;;;;;3.55;2.55;;;;;;;5.86;90.59277;95779.93;;;;
2020/02/24 02:49:57;;;;;;;3.55;2.55;;;;;;;5.86;90.59277;95779.93;;;;
2020/02/24 02:50:58;;;;;;;3.55;2.55;;;;;;;5.86;90.59277;95779.93;;;;
2020/02/24 02:51:58;;;;;;;3.55;2.55;;;;;;;5.86;90.59277;95779.93;;;;
2020/02/24 02:52:59;;;;;;;3.55;2.55;;;;;;;5.86;90.59277;95779.93;;;;
2020/02/24 02:53:59;;;;;;;3.55;2.55;;;;;;;5.86;90.59277;95779.93;;;;
2020/02/24 02:54:59;;;;;;;3.55;2.55;;;;;;;5.86;90.59277;95779.93;;;;
2020/02/24 02:56:00;;;;;;;3.55;2.55;;;;;;;5.86;90.59277;95779.93;;;;
2020/02/24 02:57:02;;;;;;;3.55;2.55;;;;;;;5.86;90.59277;95779.93;;;;
2020/02/24 02:58:04;;;;;;;3.55;2.55;;;;;;;5.86;90.59277;95779.93;;;;
2020/02/24 02:59:11;;;;;;;3.55;2.55;;;;;;;5.86;90.59277;95779.93;;;;
2020/02/24 03:00:11;;;;;;;3.5;2.8;;;;;;;5.72;90.55078;95807.2;;;;
2020/02/24 03:02:21;;;;;;;3.5;2.8;;;;;;;5.72;90.55078;95807.2;;;;
2020/02/24 03:03:21;;;;;;;3.5;2.8;;;;;;;5.72;90.55078;95807.2;;;;
2020/02/24 03:04:24;;;;;;;3.5;2.8;;;;;;;5.72;90.55078;95807.2;;;;
2020/02/24 03:05:27;;;;;;;3.5;2.8;;;;;;;5.72;90.55078;95807.2;;;;
2020/02/24 03:06:29;;;;;;;3.5;2.8;;;;;;;5.72;90.55078;95807.2;;;;
2020/02/24 03:07:30;;;;;;;3.5;2.8;;;;;;;5.72;90.55078;95807.2;;;;
2020/02/24 03:08:30;;;;;;;3.5;2.8;;;;;;;5.72;90.55078;95807.2;;;;
2020/02/24 03:09:31;;;;;;;3.5;2.8;;;;;;;5.72;90.55078;95807.2;;;;
2020/02/24 03:11:03;;;;;;;2.9;2.4;;;;;;;5.45;90.69531;95845.47;;;;
2020/02/24 03:12:07;;;;;;;2.9;2.4;;;;;;;5.45;90.69531;95845.47;;;;
2020/02/24 03:13:14;;;;;;;2.9;2.4;;;;;;;5.45;90.69531;95845.47;;;;
2020/02/24 03:14:14;;;;;;;2.9;2.4;;;;;;;5.45;90.69531;95845.47;;;;
2020/02/24 03:15:15;;;;;;;2.9;2.4;;;;;;;5.45;90.69531;95845.47;;;;
2020/02/24 03:16:18;;;;;;;2.9;2.4;;;;;;;5.45;90.69531;95845.47;;;;
2020/02/24 03:17:20;;;;;;;2.9;2.4;;;;;;;5.45;90.69531;95845.47;;;;
2020/02/24 03:18:21;;;;;;;2.9;2.4;;;;;;;5.45;90.69531;95845.47;;;;
2020/02/24 03:19:26;;;;;;;2.9;2.4;;;;;;;5.45;90.69531;95845.47;;;;
2020/02/24 03:20:27;;;;;;;2.9;2.4;;;;;;;5.45;90.69531;95845.47;;;;
2020/02/24 03:21:27;;;;;;;2.55;2.35;;;;;;;5.24;91.07031;95840.48;;;;
2020/02/24 03:22:28;;;;;;;2.55;2.35;;;;;;;5.24;91.07031;95840.48;;;;
2020/02/24 03:23:28;;;;;;;2.55;2.35;;;;;;;5.24;91.07031;95840.48;;;;
2020/02/24 03:24:28;;;;;;;2.55;2.35;;;;;;;5.24;91.07031;95840.48;;;;
2020/02/24 03:25:29;;;;;;;2.55;2.35;;;;;;;5.24;91.07031;95840.48;;;;
2020/02/24 03:26:29;;;;;;;2.55;2.35;;;;;;;5.24;91.07031;95840.48;;;;
2020/02/24 03:27:30;;;;;;;2.55;2.35;;;;;;;5.24;91.07031;95840.48;;;;
2020/02/24 03:28:31;;;;;;;2.55;2.35;;;;;;;5.24;91.07031;95840.48;;;;
2020/02/24 03:29:31;;;;;;;2.55;2.35;;;;;;;5.24;91.07031;95840.48;;;;
2020/02/24 03:30:32;;;;;;;2.55;2.35;;;;;;;5.24;91.07031;95840.48;;;;
2020/02/24 03:31:33;;;;;;;3.1;2.55;;;;;;;4.98;91.0166;95863.86;;;;
2020/02/24 03:32:33;;;;;;;3.1;2.55;;;;;;;4.98;91.0166;95863.86;;;;
2020/02/24 03:33:34;;;;;;;3.1;2.55;;;;;;;4.98;91.0166;95863.86;;;;
2020/02/24 03:34:35;;;;;;;3.1;2.55;;;;;;;4.98;91.0166;95863.86;;;;
2020/02/24 03:35:36;;;;;;;3.1;2.55;;;;;;;4.98;91.0166;95863.86;;;;
2020/02/24 03:36:36;;;;;;;3.1;2.55;;;;;;;4.98;91.0166;95863.86;;;;
2020/02/24 03:37:37;;;;;;;3.1;2.55;;;;;;;4.98;91.0166;95863.86;;;;
2020/02/24 03:38:38;;;;;;;3.1;2.55;;;;;;;4.98;91.0166;95863.86;;;;
2020/02/24 03:39:38;;;;;;;3.1;2.55;;;;;;;4.98;91.0166;95863.86;;;;
2020/02/24 03:40:46;;;;;;;3.1;2.55;;;;;;;4.98;91.0166;95863.86;;;;
2020/02/24 03:41:50;;;;;;;3.1;2.55;;;;;;;4.98;91.0166;95863.86;;;;
2020/02/24 03:42:51;;;;;;;3.4;3.05;;;;;;;4.8;90.96875;95879.78;;;;
2020/02/24 03:43:51;;;;;;;3.4;3.05;;;;;;;4.8;90.96875;95879.78;;;;
2020/02/24 03:44:52;;;;;;;3.4;3.05;;;;;;;4.8;90.96875;95879.78;;;;
2020/02/24 03:46:00;;;;;;;3.4;3.05;;;;;;;4.8;90.96875;95879.78;;;;
2020/02/24 03:47:03;;;;;;;3.4;3.05;;;;;;;4.8;90.96875;95879.78;;;;
2020/02/24 03:48:05;;;;;;;3.4;3.05;;;;;;;4.8;90.96875;95879.78;;;;
2020/02/24 03:49:08;;;;;;;3.4;3.05;;;;;;;4.8;90.96875;95879.78;;;;
2020/02/24 03:51:14;;;;;;;3.4;3.05;;;;;;;4.8;90.96875;95879.78;;;;
2020/02/24 03:52:15;;;;;;;3.4;3.05;;;;;;;4.8;90.96875;95879.78;;;;
2020/02/24 03:53:16;;;;;;;3.95;2.85;;;;;;;4.65;90.94727;95908.91;;;;
2020/02/24 03:54:23;;;;;;;3.95;2.85;;;;;;;4.65;90.94727;95908.91;;;;
2020/02/24 03:55:23;;;;;;;3.95;2.85;;;;;;;4.65;90.94727;95908.91;;;;
2020/02/24 03:56:24;;;;;;;3.95;2.85;;;;;;;4.65;90.94727;95908.91;;;;
2020/02/24 03:57:24;;;;;;;3.95;2.85;;;;;;;4.65;90.94727;95908.91;;;;
2020/02/24 03:58:25;;;;;;;3.95;2.85;;;;;;;4.65;90.94727;95908.91;;;;
2020/02/24 03:59:28;;;;;;;3.95;2.85;;;;;;;4.65;90.94727;95908.91;;;;
2020/02/24 04:00:29;;;;;;;3.95;2.85;;;;;;;4.65;90.94727;95908.91;;;;
2020/02/24 04:01:39;;;;;;;3.95;2.85;;;;;;;4.65;90.94727;95908.91;;;;
2020/02/24 04:02:39;;;;;;;3.95;2.85;;;;;;;4.65;90.94727;95908.91;;;;
2020/02/24 04:03:39;;;;;;;3.6;2.4;;;;;;;4.58;91.37402;95914.17;;;;
2020/02/24 04:04:41;;;;;;;3.6;2.4;;;;;;;4.58;91.37402;95914.17;;;;
2020/02/24 04:05:42;;;;;;;3.6;2.4;;;;;;;4.58;91.37402;95914.17;;;;
2020/02/24 04:06:43;;;;;;;3.6;2.4;;;;;;;4.58;91.37402;95914.17;;;;
2020/02/24 04:07:43;;;;;;;3.6;2.4;;;;;;;4.58;91.37402;95914.17;;;;
2020/02/24 04:08:44;;;;;;;3.6;2.4;;;;;;;4.58;91.37402;95914.17;;;;
2020/02/24 04:09:45;;;;;;;3.6;2.4;;;;;;;4.58;91.37402;95914.17;;;;
2020/02/24 04:10:46;;;;;;;3.6;2.4;;;;;;;4.58;91.37402;95914.17;;;;
2020/02/24 04:11:46;;;;;;;3.6;2.4;;;;;;;4.58;91.37402;95914.17;;;;
2020/02/24 04:12:47;;;;;;;3.6;2.4;;;;;;;4.58;91.37402;95914.17;;;;
2020/02/24 04:13:47;;;;;;;4.05;2.55;;;;;;;4.45;90.66406;95914.46;;;;
2020/02/24 04:14:49;;;;;;;4.05;2.55;;;;;;;4.45;90.66406;95914.46;;;;
2020/02/24 04:15:49;;;;;;;4.05;2.55;;;;;;;4.45;90.66406;95914.46;;;;
2020/02/24 04:16:51;;;;;;;4.05;2.55;;;;;;;4.45;90.66406;95914.46;;;;
2020/02/24 04:17:53;;;;;;;4.05;2.55;;;;;;;4.45;90.66406;95914.46;;;;
2020/02/24 04:18:53;;;;;;;4.05;2.55;;;;;;;4.45;90.66406;95914.46;;;;
2020/02/24 04:19:55;;;;;;;4.05;2.55;;;;;;;4.45;90.66406;95914.46;;;;
2020/02/24 04:20:55;;;;;;;4.05;2.55;;;;;;;4.45;90.66406;95914.46;;;;
2020/02/24 04:21:57;;;;;;;4.05;2.55;;;;;;;4.45;90.66406;95914.46;;;;
2020/02/24 04:22:59;;;;;;;4.05;2.55;;;;;;;4.45;90.66406;95914.46;;;;
2020/02/24 04:24:00;;;;;;;4.05;2.55;;;;;;;4.45;90.66406;95914.46;;;;
2020/02/24 04:25:01;;;;;;;3.65;2.8;;;;;;;4.4;90.59961;95928.89;;;;
2020/02/24 04:26:01;;;;;;;3.65;2.8;;;;;;;4.4;90.59961;95928.89;;;;
2020/02/24 04:27:09;;;;;;;3.65;2.8;;;;;;;4.4;90.59961;95928.89;;;;
2020/02/24 04:28:09;;;;;;;3.65;2.8;;;;;;;4.4;90.59961;95928.89;;;;
2020/02/24 04:29:11;;;;;;;3.65;2.8;;;;;;;4.4;90.59961;95928.89;;;;
2020/02/24 04:30:12;;;;;;;3.65;2.8;;;;;;;4.4;90.59961;95928.89;;;;
2020/02/24 04:31:16;;;;;;;3.65;2.8;;;;;;;4.4;90.59961;95928.89;;;;
2020/02/24 04:32:17;;;;;;;3.65;2.8;;;;;;;4.4;90.59961;95928.89;;;;
2020/02/24 04:33:17;;;;;;;3.65;2.8;;;;;;;4.4;90.59961;95928.89;;;;
2020/02/24 04:34:18;;;;;;;3.65;2.8;;;;;;;4.4;90.59961;95928.89;;;;
2020/02/24 04:35:18;;;;;;;3.25;2.75;;;;;;;4.27;90.32227;95927.76;;;;
2020/02/24 04:36:19;;;;;;;3.25;2.75;;;;;;;4.27;90.32227;95927.76;;;;
2020/02/24 04:37:19;;;;;;;3.25;2.75;;;;;;;4.27;90.32227;95927.76;;;;
2020/02/24 04:38:20;;;;;;;3.25;2.75;;;;;;;4.27;90.32227;95927.76;;;;
2020/02/24 04:39:20;;;;;;;3.25;2.75;;;;;;;4.27;90.32227;95927.76;;;;
2020/02/24 04:40:21;;;;;;;3.25;2.75;;;;;;;4.27;90.32227;95927.76;;;;
2020/02/24 04:41:22;;;;;;;3.25;2.75;;;;;;;4.27;90.32227;95927.76;;;;
2020/02/24 04:42:23;;;;;;;3.25;2.75;;;;;;;4.27;90.32227;95927.76;;;;
2020/02/24 04:43:24;;;;;;;3.25;2.75;;;;;;;4.27;90.32227;95927.76;;;;
2020/02/24 04:44:24;;;;;;;3.25;2.75;;;;;;;4.27;90.32227;95927.76;;;;
2020/02/24 04:45:25;;;;;;;3.25;2.75;;;;;;;4.27;90.32227;95927.76;;;;
2020/02/24 04:46:27;;;;;;;6.35;3.25;;;;;;;4.28;90.1875;95940.12;;;;
2020/02/24 04:47:27;;;;;;;6.35;3.25;;;;;;;4.28;90.1875;95940.12;;;;
2020/02/24 04:48:28;;;;;;;6.35;3.25;;;;;;;4.28;90.1875;95940.12;;;;
2020/02/24 04:49:28;;;;;;;6.35;3.25;;;;;;;4.28;90.1875;95940.12;;;;
2020/02/24 04:50:28;;;;;;;6.35;3.25;;;;;;;4.28;90.1875;95940.12;;;;
2020/02/24 04:51:29;;;;;;;6.35;3.25;;;;;;;4.28;90.1875;95940.12;;;;
2020/02/24 04:52:30;;;;;;;6.35;3.25;;;;;;;4.28;90.1875;95940.12;;;;
2020/02/24 04:53:30;;;;;;;6.35;3.25;;;;;;;4.28;90.1875;95940.12;;;;
2020/02/24 04:54:30;;;;;;;6.35;3.25;;;;;;;4.28;90.1875;95940.12;;;;
2020/02/24 04:55:31;;;;;;;6.35;3.25;;;;;;;4.28;90.1875;95940.12;;;;
2020/02/24 04:56:31;;;;;;;5.45;3.3;;;;;;;4.19;89.86426;95941.6;;;;
2020/02/24 04:57:32;;;;;;;5.45;3.3;;;;;;;4.19;89.86426;95941.6;;;;
2020/02/24 04:58:33;;;;;;;5.45;3.3;;;;;;;4.19;89.86426;95941.6;;;;
2020/02/24 04:59:33;;;;;;;5.45;3.3;;;;;;;4.19;89.86426;95941.6;;;;
2020/02/24 05:00:34;;;;;;;5.45;3.3;;;;;;;4.19;89.86426;95941.6;;;;
2020/02/24 05:01:36;;;;;;;5.45;3.3;;;;;;;4.19;89.86426;95941.6;;;;
2020/02/24 05:02:36;;;;;;;5.45;3.3;;;;;;;4.19;89.86426;95941.6;;;;
2020/02/24 05:03:37;;;;;;;5.45;3.3;;;;;;;4.19;89.86426;95941.6;;;;
2020/02/24 05:04:37;;;;;;;5.45;3.3;;;;;;;4.19;89.86426;95941.6;;;;
2020/02/24 05:05:38;;;;;;;5.45;3.3;;;;;;;4.19;89.86426;95941.6;;;;
2020/02/24 05:06:39;;;;;;;5.45;3.3;;;;;;;4.19;89.86426;95941.6;;;;
2020/02/24 05:07:39;;;;;;;4.2;3.35;;;;;;;4.17;89.6416;95969.42;;;;
2020/02/24 05:08:40;;;;;;;4.2;3.35;;;;;;;4.17;89.6416;95969.42;;;;
2020/02/24 05:09:40;;;;;;;4.2;3.35;;;;;;;4.17;89.6416;95969.42;;;;
2020/02/24 05:10:40;;;;;;;4.2;3.35;;;;;;;4.17;89.6416;95969.42;;;;
2020/02/24 05:11:41;;;;;;;4.2;3.35;;;;;;;4.17;89.6416;95969.42;;;;
2020/02/24 05:12:42;;;;;;;4.2;3.35;;;;;;;4.17;89.6416;95969.42;;;;
2020/02/24 05:13:43;;;;;;;4.2;3.35;;;;;;;4.17;89.6416;95969.42;;;;
2020/02/24 05:14:44;;;;;;;4.2;3.35;;;;;;;4.17;89.6416;95969.42;;;;
2020/02/24 05:15:44;;;;;;;4.2;3.35;;;;;;;4.17;89.6416;95969.42;;;;
2020/02/24 05:16:45;;;;;;;4.2;3.35;;;;;;;4.17;89.6416;95969.42;;;;
2020/02/24 05:17:48;;;;;;;6.349999;3.85;;;;;;;4.01;89.51172;95958.45;;;;
2020/02/24 05:18:50;;;;;;;6.349999;3.85;;;;;;;4.01;89.51172;95958.45;;;;
2020/02/24 05:19:51;;;;;;;6.349999;3.85;;;;;;;4.01;89.51172;95958.45;;;;
2020/02/24 05:20:51;;;;;;;6.349999;3.85;;;;;;;4.01;89.51172;95958.45;;;;
2020/02/24 05:21:53;;;;;;;6.349999;3.85;;;;;;;4.01;89.51172;95958.45;;;;
2020/02/24 05:22:54;;;;;;;6.349999;3.85;;;;;;;4.01;89.51172;95958.45;;;;
2020/02/24 05:23:55;;;;;;;6.349999;3.85;;;;;;;4.01;89.51172;95958.45;;;;
2020/02/24 05:24:56;;;;;;;6.349999;3.85;;;;;;;4.01;89.51172;95958.45;;;;
2020/02/24 05:25:56;;;;;;;6.349999;3.85;;;;;;;4.01;89.51172;95958.45;;;;
2020/02/24 05:26:57;;;;;;;6.349999;3.85;;;;;;;4.01;89.51172;95958.45;;;;
2020/02/24 05:27:57;;;;;;;6.349999;3.85;;;;;;;4.01;89.51172;95958.45;;;;
2020/02/24 05:28:58;;;;;;;5.300001;3.75;;;;;;;3.95;89.79395;95970.29;;;;
2020/02/24 05:29:58;;;;;;;5.300001;3.75;;;;;;;3.95;89.79395;95970.29;;;;
2020/02/24 05:30:59;;;;;;;5.300001;3.75;;;;;;;3.95;89.79395;95970.29;;;;
2020/02/24 05:31:59;;;;;;;5.300001;3.75;;;;;;;3.95;89.79395;95970.29;;;;
2020/02/24 05:32:59;;;;;;;5.300001;3.75;;;;;;;3.95;89.79395;95970.29;;;;
2020/02/24 05:34:00;;;;;;;5.300001;3.75;;;;;;;3.95;89.79395;95970.29;;;;
2020/02/24 05:35:00;;;;;;;5.300001;3.75;;;;;;;3.95;89.79395;95970.29;;;;
2020/02/24 05:36:02;;;;;;;5.300001;3.75;;;;;;;3.95;89.79395;95970.29;;;;
2020/02/24 05:37:02;;;;;;;5.300001;3.75;;;;;;;3.95;89.79395;95970.29;;;;
2020/02/24 05:38:03;;;;;;;5.300001;3.75;;;;;;;3.95;89.79395;95970.29;;;;
2020/02/24 05:39:04;;;;;;;4.549999;3.55;;;;;;;3.89;89.53906;95979.01;;;;
2020/02/24 05:40:16;;;;;;;4.549999;3.55;;;;;;;3.89;89.53906;95979.01;;;;
2020/02/24 05:41:17;;;;;;;4.549999;3.55;;;;;;;3.89;89.53906;95979.01;;;;
2020/02/24 05:42:17;;;;;;;4.549999;3.55;;;;;;;3.89;89.53906;95979.01;;;;
2020/02/24 05:43:18;;;;;;;4.549999;3.55;;;;;;;3.89;89.53906;95979.01;;;;
2020/02/24 05:44:18;;;;;;;4.549999;3.55;;;;;;;3.89;89.53906;95979.01;;;;
2020/02/24 05:45:19;;;;;;;4.549999;3.55;;;;;;;3.89;89.53906;95979.01;;;;
2020/02/24 05:46:19;;;;;;;4.549999;3.55;;;;;;;3.89;89.53906;95979.01;;;;
2020/02/24 05:47:19;;;;;;;4.549999;3.55;;;;;;;3.89;89.53906;95979.01;;;;
2020/02/24 05:48:20;;;;;;;4.549999;3.55;;;;;;;3.89;89.53906;95979.01;;;;
2020/02/24 05:49:20;;;;;;;5.3;4.249999;;;;;;;3.9;89.74219;95972.64;;;;
2020/02/24 05:50:21;;;;;;;5.3;4.249999;;;;;;;3.9;89.74219;95972.64;;;;
2020/02/24 05:51:21;;;;;;;5.3;4.249999;;;;;;;3.9;89.74219;95972.64;;;;
2020/02/24 05:52:22;;;;;;;5.3;4.249999;;;;;;;3.9;89.74219;95972.64;;;;
2020/02/24 05:53:22;;;;;;;5.3;4.249999;;;;;;;3.9;89.74219;95972.64;;;;
2020/02/24 05:54:23;;;;;;;5.3;4.249999;;;;;;;3.9;89.74219;95972.64;;;;
2020/02/24 05:55:23;;;;;;;5.3;4.249999;;;;;;;3.9;89.74219;95972.64;;;;
2020/02/24 05:56:24;;;;;;;5.3;4.249999;;;;;;;3.9;89.74219;95972.64;;;;
2020/02/24 05:57:24;;;;;;;5.3;4.249999;;;;;;;3.9;89.74219;95972.64;;;;
2020/02/24 05:58:25;;;;;;;5.3;4.249999;;;;;;;3.9;89.74219;95972.64;;;;
2020/02/24 05:59:25;;;;;;;5.3;4.249999;;;;;;;3.9;89.74219;95972.64;;;;
2020/02/24 06:00:26;;;;;;;5.849999;4.6;;;;;;;3.87;89.8916;95973.92;;;;
2020/02/24 06:01:26;;;;;;;5.849999;4.6;;;;;;;3.87;89.8916;95973.92;;;;
2020/02/24 06:02:27;;;;;;;5.849999;4.6;;;;;;;3.87;89.8916;95973.92;;;;
2020/02/24 06:03:27;;;;;;;5.849999;4.6;;;;;;;3.87;89.8916;95973.92;;;;
2020/02/24 06:04:28;;;;;;;5.849999;4.6;;;;;;;3.87;89.8916;95973.92;;;;
2020/02/24 06:05:28;;;;;;;5.849999;4.6;;;;;;;3.87;89.8916;95973.92;;;;
2020/02/24 06:06:29;;;;;;;5.849999;4.6;;;;;;;3.87;89.8916;95973.92;;;;
2020/02/24 06:07:32;;;;;;;5.849999;4.6;;;;;;;3.87;89.8916;95973.92;;;;
2020/02/24 06:08:32;;;;;;;5.849999;4.6;;;;;;;3.87;89.8916;95973.92;;;;
2020/02/24 06:09:34;;;;;;;5.849999;4.6;;;;;;;3.87;89.8916;95973.92;;;;
2020/02/24 06:10:38;;;;;;;6;4.6;;;;;;;3.9;89.7627;95978.94;;;;
2020/02/24 06:11:39;;;;;;;6;4.6;;;;;;;3.9;89.7627;95978.94;;;;
2020/02/24 06:12:40;;;;;;;6;4.6;;;;;;;3.9;89.7627;95978.94;;;;
2020/02/24 06:13:40;;;;;;;6;4.6;;;;;;;3.9;89.7627;95978.94;;;;
2020/02/24 06:14:41;;;;;;;6;4.6;;;;;;;3.9;89.7627;95978.94;;;;
2020/02/24 06:15:41;;;;;;;6;4.6;;;;;;;3.9;89.7627;95978.94;;;;
2020/02/24 06:16:42;;;;;;;6;4.6;;;;;;;3.9;89.7627;95978.94;;;;
2020/02/24 06:17:42;;;;;;;6;4.6;;;;;;;3.9;89.7627;95978.94;;;;
2020/02/24 06:18:43;;;;;;;6;4.6;;;;;;;3.9;89.7627;95978.94;;;;
2020/02/24 06:19:43;;;;;;;6;4.6;;;;;;;3.9;89.7627;95978.94;;;;
2020/02/24 06:20:44;;;;;;;6;4.6;;;;;;;3.9;89.7627;95978.94;;;;
2020/02/24 06:21:48;;;;;;;5.849999;4.550001;;;;;;;3.86;89.58594;95969.19;;;;
2020/02/24 06:22:48;;;;;;;5.849999;4.550001;;;;;;;3.86;89.58594;95969.19;;;;
2020/02/24 06:23:49;;;;;;;5.849999;4.550001;;;;;;;3.86;89.58594;95969.19;;;;
2020/02/24 06:24:49;;;;;;;5.849999;4.550001;;;;;;;3.86;89.58594;95969.19;;;;
2020/02/24 06:25:50;;;;;;;5.849999;4.550001;;;;;;;3.86;89.58594;95969.19;;;;
2020/02/24 06:26:50;;;;;;;5.849999;4.550001;;;;;;;3.86;89.58594;95969.19;;;;
2020/02/24 06:27:51;;;;;;;5.849999;4.550001;;;;;;;3.86;89.58594;95969.19;;;;
2020/02/24 06:28:52;;;;;;;5.849999;4.550001;;;;;;;3.86;89.58594;95969.19;;;;
2020/02/24 06:29:52;;;;;;;5.849999;4.550001;;;;;;;3.86;89.58594;95969.19;;;;
2020/02/24 06:30:55;;;;;;;5.849999;4.550001;;;;;;;3.86;89.58594;95969.19;;;;
2020/02/24 06:31:56;;;;;;;6.3;4.450001;;;;;;;3.88;89.49707;95982.7;;;;
2020/02/24 06:32:56;;;;;;;6.3;4.450001;;;;;;;3.88;89.49707;95982.7;;;;
2020/02/24 06:33:57;;;;;;;6.3;4.450001;;;;;;;3.88;89.49707;95982.7;;;;
2020/02/24 06:34:58;;;;;;;6.3;4.450001;;;;;;;3.88;89.49707;95982.7;;;;
2020/02/24 06:35:58;;;;;;;6.3;4.450001;;;;;;;3.88;89.49707;95982.7;;;;
2020/02/24 06:37:00;;;;;;;6.3;4.450001;;;;;;;3.88;89.49707;95982.7;;;;
2020/02/24 06:38:01;;;;;;;6.3;4.450001;;;;;;;3.88;89.49707;95982.7;;;;
2020/02/24 06:39:03;;;;;;;6.3;4.450001;;;;;;;3.88;89.49707;95982.7;;;;
2020/02/24 06:40:08;;;;;;;6.3;4.450001;;;;;;;3.88;89.49707;95982.7;;;;